sensor_id;sensor_type;location;lat;lon;timestamp;P1;durP1;ratioP1;P2;durP2;ratioP2
20415;SDS011;10367;52.202;5.996;2023-03-03T00:00:01;46.63;;;18.17;;
20415;SDS011;10367;52.202;5.996;2023-03-03T00:02:30;40.30;;;16.20;;
20415;SDS011;10367;52.202;5.996;2023-03-03T00:05:04;41.87;;;17.53;;
20415;SDS011;10367;52.202;5.996;2023-03-03T00:07:36;41.87;;;16.37;;
20415;SDS011;10367;52.202;5.996;2023-03-03T00:10:06;44.93;;;17.03;;
20415;SDS011;10367;52.202;5.996;2023-03-03T00:12:36;44.47;;;16.80;;
20415;SDS011;10367;52.202;5.996;2023-03-03T00:15:16;54.77;;;19.70;;
20415;SDS011;10367;52.202;5.996;2023-03-03T00:17:48;37.80;;;15.00;;
20415;SDS011;10367;52.202;5.996;2023-03-03T00:20:25;40.60;;;16.40;;
20415;SDS011;10367;52.202;5.996;2023-03-03T00:23:12;46.07;;;17.90;;
20415;SDS011;10367;52.202;5.996;2023-03-03T00:25:45;47.37;;;17.20;;
20415;SDS011;10367;52.202;5.996;2023-03-03T00:28:20;47.87;;;16.43;;
20415;SDS011;10367;52.202;5.996;2023-03-03T00:30:54;42.23;;;15.90;;
20415;SDS011;10367;52.202;5.996;2023-03-03T00:33:29;45.00;;;17.87;;
20415;SDS011;10367;52.202;5.996;2023-03-03T00:36:10;54.13;;;19.10;;
20415;SDS011;10367;52.202;5.996;2023-03-03T00:38:59;46.63;;;17.33;;
20415;SDS011;10367;52.202;5.996;2023-03-03T00:41:53;42.93;;;17.17;;
20415;SDS011;10367;52.202;5.996;2023-03-03T00:44:30;36.67;;;15.37;;
20415;SDS011;10367;52.202;5.996;2023-03-03T00:47:23;57.53;;;19.37;;
20415;SDS011;10367;52.202;5.996;2023-03-03T00:53:01;47.77;;;17.73;;
20415;SDS011;10367;52.202;5.996;2023-03-03T00:55:32;45.10;;;17.17;;
20415;SDS011;10367;52.202;5.996;2023-03-03T00:58:03;49.27;;;18.00;;
20415;SDS011;10367;52.202;5.996;2023-03-03T01:00:32;44.43;;;16.73;;
20415;SDS011;10367;52.202;5.996;2023-03-03T01:03:03;50.80;;;18.03;;
20415;SDS011;10367;52.202;5.996;2023-03-03T01:05:34;33.07;;;14.13;;
20415;SDS011;10367;52.202;5.996;2023-03-03T01:08:04;51.57;;;17.80;;
20415;SDS011;10367;52.202;5.996;2023-03-03T01:10:35;44.40;;;17.67;;
20415;SDS011;10367;52.202;5.996;2023-03-03T01:13:18;44.27;;;16.43;;
20415;SDS011;10367;52.202;5.996;2023-03-03T01:15:51;37.87;;;15.47;;
20415;SDS011;10367;52.202;5.996;2023-03-03T01:18:25;47.73;;;17.10;;
20415;SDS011;10367;52.202;5.996;2023-03-03T01:20:57;41.57;;;15.70;;
20415;SDS011;10367;52.202;5.996;2023-03-03T01:23:28;44.97;;;16.83;;
20415;SDS011;10367;52.202;5.996;2023-03-03T01:25:59;52.70;;;19.07;;
20415;SDS011;10367;52.202;5.996;2023-03-03T01:28:30;49.90;;;18.07;;
20415;SDS011;10367;52.202;5.996;2023-03-03T01:31:03;45.57;;;17.90;;
20415;SDS011;10367;52.202;5.996;2023-03-03T01:33:35;43.17;;;16.80;;
20415;SDS011;10367;52.202;5.996;2023-03-03T01:36:06;50.77;;;16.70;;
20415;SDS011;10367;52.202;5.996;2023-03-03T01:38:40;39.37;;;15.70;;
20415;SDS011;10367;52.202;5.996;2023-03-03T01:41:17;34.97;;;14.63;;
20415;SDS011;10367;52.202;5.996;2023-03-03T01:43:52;47.60;;;16.97;;
20415;SDS011;10367;52.202;5.996;2023-03-03T01:49:24;49.63;;;17.57;;
20415;SDS011;10367;52.202;5.996;2023-03-03T01:52:04;45.27;;;16.87;;
20415;SDS011;10367;52.202;5.996;2023-03-03T01:54:44;39.73;;;15.63;;
20415;SDS011;10367;52.202;5.996;2023-03-03T01:57:20;32.70;;;14.53;;
20415;SDS011;10367;52.202;5.996;2023-03-03T01:59:53;40.40;;;16.37;;
20415;SDS011;10367;52.202;5.996;2023-03-03T02:02:34;43.70;;;17.77;;
20415;SDS011;10367;52.202;5.996;2023-03-03T02:05:04;40.40;;;15.57;;
20415;SDS011;10367;52.202;5.996;2023-03-03T02:07:41;50.50;;;17.47;;
20415;SDS011;10367;52.202;5.996;2023-03-03T02:10:14;37.77;;;14.73;;
20415;SDS011;10367;52.202;5.996;2023-03-03T02:12:50;41.97;;;16.17;;
20415;SDS011;10367;52.202;5.996;2023-03-03T02:15:25;45.93;;;17.17;;
20415;SDS011;10367;52.202;5.996;2023-03-03T02:17:59;52.60;;;16.80;;
20415;SDS011;10367;52.202;5.996;2023-03-03T02:20:40;44.13;;;16.53;;
20415;SDS011;10367;52.202;5.996;2023-03-03T02:23:17;38.00;;;15.07;;
20415;SDS011;10367;52.202;5.996;2023-03-03T02:26:07;46.43;;;17.17;;
20415;SDS011;10367;52.202;5.996;2023-03-03T02:28:47;42.40;;;16.83;;
20415;SDS011;10367;52.202;5.996;2023-03-03T02:31:23;38.60;;;15.60;;
20415;SDS011;10367;52.202;5.996;2023-03-03T02:33:54;42.33;;;15.93;;
20415;SDS011;10367;52.202;5.996;2023-03-03T02:36:24;38.07;;;15.47;;
20415;SDS011;10367;52.202;5.996;2023-03-03T02:39:04;37.83;;;13.90;;
20415;SDS011;10367;52.202;5.996;2023-03-03T02:41:41;37.73;;;14.90;;
20415;SDS011;10367;52.202;5.996;2023-03-03T02:44:14;40.27;;;15.70;;
20415;SDS011;10367;52.202;5.996;2023-03-03T02:46:48;37.53;;;15.17;;
20415;SDS011;10367;52.202;5.996;2023-03-03T02:49:21;30.80;;;12.67;;
20415;SDS011;10367;52.202;5.996;2023-03-03T02:51:57;51.93;;;19.40;;
20415;SDS011;10367;52.202;5.996;2023-03-03T02:54:27;36.43;;;14.90;;
20415;SDS011;10367;52.202;5.996;2023-03-03T02:57:04;46.43;;;17.10;;
20415;SDS011;10367;52.202;5.996;2023-03-03T02:59:42;31.00;;;12.63;;
20415;SDS011;10367;52.202;5.996;2023-03-03T03:02:18;36.03;;;14.83;;
20415;SDS011;10367;52.202;5.996;2023-03-03T03:04:51;35.30;;;15.57;;
20415;SDS011;10367;52.202;5.996;2023-03-03T03:07:21;38.60;;;14.67;;
20415;SDS011;10367;52.202;5.996;2023-03-03T03:09:50;44.80;;;16.73;;
20415;SDS011;10367;52.202;5.996;2023-03-03T03:12:24;38.30;;;15.87;;
20415;SDS011;10367;52.202;5.996;2023-03-03T03:15:00;42.47;;;15.77;;
20415;SDS011;10367;52.202;5.996;2023-03-03T03:17:43;41.13;;;15.40;;
20415;SDS011;10367;52.202;5.996;2023-03-03T03:20:12;47.97;;;17.00;;
20415;SDS011;10367;52.202;5.996;2023-03-03T03:22:47;40.30;;;15.13;;
20415;SDS011;10367;52.202;5.996;2023-03-03T03:25:23;39.97;;;15.73;;
20415;SDS011;10367;52.202;5.996;2023-03-03T03:28:02;45.40;;;16.03;;
20415;SDS011;10367;52.202;5.996;2023-03-03T03:30:32;44.27;;;15.90;;
20415;SDS011;10367;52.202;5.996;2023-03-03T03:33:12;57.67;;;18.73;;
20415;SDS011;10367;52.202;5.996;2023-03-03T03:35:41;43.13;;;15.47;;
20415;SDS011;10367;52.202;5.996;2023-03-03T03:38:18;51.00;;;16.13;;
20415;SDS011;10367;52.202;5.996;2023-03-03T03:40:47;40.10;;;15.27;;
20415;SDS011;10367;52.202;5.996;2023-03-03T03:46:08;45.63;;;16.87;;
20415;SDS011;10367;52.202;5.996;2023-03-03T03:48:42;35.80;;;14.10;;
20415;SDS011;10367;52.202;5.996;2023-03-03T03:51:12;46.37;;;17.23;;
20415;SDS011;10367;52.202;5.996;2023-03-03T03:53:43;42.37;;;15.60;;
20415;SDS011;10367;52.202;5.996;2023-03-03T03:56:21;35.40;;;14.73;;
20415;SDS011;10367;52.202;5.996;2023-03-03T03:58:54;53.67;;;16.73;;
20415;SDS011;10367;52.202;5.996;2023-03-03T04:01:23;50.57;;;17.53;;
20415;SDS011;10367;52.202;5.996;2023-03-03T04:03:55;43.17;;;17.07;;
20415;SDS011;10367;52.202;5.996;2023-03-03T04:06:33;46.27;;;15.10;;
20415;SDS011;10367;52.202;5.996;2023-03-03T04:09:02;40.17;;;15.13;;
20415;SDS011;10367;52.202;5.996;2023-03-03T04:11:31;39.87;;;14.73;;
20415;SDS011;10367;52.202;5.996;2023-03-03T04:14:02;43.37;;;15.07;;
20415;SDS011;10367;52.202;5.996;2023-03-03T04:16:33;42.50;;;13.80;;
20415;SDS011;10367;52.202;5.996;2023-03-03T04:19:05;46.13;;;15.50;;
20415;SDS011;10367;52.202;5.996;2023-03-03T04:21:40;45.73;;;16.17;;
20415;SDS011;10367;52.202;5.996;2023-03-03T04:24:11;34.13;;;14.33;;
20415;SDS011;10367;52.202;5.996;2023-03-03T04:26:48;35.50;;;13.90;;
20415;SDS011;10367;52.202;5.996;2023-03-03T04:29:25;30.80;;;12.97;;
20415;SDS011;10367;52.202;5.996;2023-03-03T04:32:00;45.30;;;14.80;;
20415;SDS011;10367;52.202;5.996;2023-03-03T04:34:31;42.70;;;13.47;;
20415;SDS011;10367;52.202;5.996;2023-03-03T04:37:08;48.13;;;16.93;;
20415;SDS011;10367;52.202;5.996;2023-03-03T04:39:38;36.20;;;11.63;;
20415;SDS011;10367;52.202;5.996;2023-03-03T04:42:26;38.77;;;14.33;;
20415;SDS011;10367;52.202;5.996;2023-03-03T04:47:46;32.60;;;12.50;;
20415;SDS011;10367;52.202;5.996;2023-03-03T04:50:17;36.07;;;14.00;;
20415;SDS011;10367;52.202;5.996;2023-03-03T04:52:51;31.17;;;12.27;;
20415;SDS011;10367;52.202;5.996;2023-03-03T04:55:22;26.73;;;10.80;;
20415;SDS011;10367;52.202;5.996;2023-03-03T04:57:58;35.30;;;13.20;;
20415;SDS011;10367;52.202;5.996;2023-03-03T05:00:31;30.63;;;11.63;;
20415;SDS011;10367;52.202;5.996;2023-03-03T05:03:02;28.40;;;10.73;;
20415;SDS011;10367;52.202;5.996;2023-03-03T05:05:33;33.53;;;11.57;;
20415;SDS011;10367;52.202;5.996;2023-03-03T05:08:07;41.27;;;13.73;;
20415;SDS011;10367;52.202;5.996;2023-03-03T05:10:44;34.27;;;12.17;;
20415;SDS011;10367;52.202;5.996;2023-03-03T05:13:22;24.60;;;10.23;;
20415;SDS011;10367;52.202;5.996;2023-03-03T05:15:56;39.17;;;13.67;;
20415;SDS011;10367;52.202;5.996;2023-03-03T05:18:29;36.97;;;14.03;;
20415;SDS011;10367;52.202;5.996;2023-03-03T05:21:03;44.97;;;15.73;;
20415;SDS011;10367;52.202;5.996;2023-03-03T05:23:35;29.50;;;12.93;;
20415;SDS011;10367;52.202;5.996;2023-03-03T05:26:04;44.87;;;15.00;;
20415;SDS011;10367;52.202;5.996;2023-03-03T05:28:33;35.13;;;14.23;;
20415;SDS011;10367;52.202;5.996;2023-03-03T05:31:12;46.20;;;15.83;;
20415;SDS011;10367;52.202;5.996;2023-03-03T05:33:44;37.57;;;13.47;;
20415;SDS011;10367;52.202;5.996;2023-03-03T05:36:18;34.40;;;13.90;;
20415;SDS011;10367;52.202;5.996;2023-03-03T05:38:58;35.30;;;12.87;;
20415;SDS011;10367;52.202;5.996;2023-03-03T05:41:27;35.60;;;13.43;;
20415;SDS011;10367;52.202;5.996;2023-03-03T05:43:56;37.13;;;12.83;;
20415;SDS011;10367;52.202;5.996;2023-03-03T05:46:26;28.33;;;11.20;;
20415;SDS011;10367;52.202;5.996;2023-03-03T05:48:55;29.70;;;12.27;;
20415;SDS011;10367;52.202;5.996;2023-03-03T05:51:27;24.97;;;10.00;;
20415;SDS011;10367;52.202;5.996;2023-03-03T05:53:56;27.70;;;11.00;;
20415;SDS011;10367;52.202;5.996;2023-03-03T05:56:27;24.57;;;9.77;;
20415;SDS011;10367;52.202;5.996;2023-03-03T05:58:59;25.53;;;9.73;;
20415;SDS011;10367;52.202;5.996;2023-03-03T06:01:37;16.13;;;7.97;;
20415;SDS011;10367;52.202;5.996;2023-03-03T06:04:07;37.93;;;12.77;;
20415;SDS011;10367;52.202;5.996;2023-03-03T06:06:38;15.90;;;7.97;;
20415;SDS011;10367;52.202;5.996;2023-03-03T06:09:09;14.13;;;6.87;;
20415;SDS011;10367;52.202;5.996;2023-03-03T06:11:40;20.07;;;9.27;;
20415;SDS011;10367;52.202;5.996;2023-03-03T06:14:16;31.10;;;11.17;;
20415;SDS011;10367;52.202;5.996;2023-03-03T06:16:48;14.93;;;7.47;;
20415;SDS011;10367;52.202;5.996;2023-03-03T06:19:18;33.97;;;11.63;;
20415;SDS011;10367;52.202;5.996;2023-03-03T06:21:51;29.23;;;9.90;;
20415;SDS011;10367;52.202;5.996;2023-03-03T06:24:28;33.67;;;11.63;;
20415;SDS011;10367;52.202;5.996;2023-03-03T06:27:00;25.10;;;8.93;;
20415;SDS011;10367;52.202;5.996;2023-03-03T06:29:31;35.03;;;11.77;;
20415;SDS011;10367;52.202;5.996;2023-03-03T06:32:05;38.03;;;12.87;;
20415;SDS011;10367;52.202;5.996;2023-03-03T06:34:40;24.57;;;10.17;;
20415;SDS011;10367;52.202;5.996;2023-03-03T06:37:16;41.80;;;11.40;;
20415;SDS011;10367;52.202;5.996;2023-03-03T06:39:48;25.77;;;10.67;;
20415;SDS011;10367;52.202;5.996;2023-03-03T06:42:21;41.70;;;10.13;;
20415;SDS011;10367;52.202;5.996;2023-03-03T06:44:53;42.13;;;10.73;;
20415;SDS011;10367;52.202;5.996;2023-03-03T06:47:25;40.53;;;11.37;;
20415;SDS011;10367;52.202;5.996;2023-03-03T06:49:58;35.87;;;11.67;;
20415;SDS011;10367;52.202;5.996;2023-03-03T06:52:30;34.83;;;9.67;;
20415;SDS011;10367;52.202;5.996;2023-03-03T06:55:09;37.27;;;11.73;;
20415;SDS011;10367;52.202;5.996;2023-03-03T06:57:39;34.13;;;10.60;;
20415;SDS011;10367;52.202;5.996;2023-03-03T07:00:15;46.10;;;12.10;;
20415;SDS011;10367;52.202;5.996;2023-03-03T07:02:57;49.47;;;10.20;;
20415;SDS011;10367;52.202;5.996;2023-03-03T07:05:37;31.83;;;10.40;;
20415;SDS011;10367;52.202;5.996;2023-03-03T07:08:13;29.90;;;11.13;;
20415;SDS011;10367;52.202;5.996;2023-03-03T07:10:44;28.97;;;10.47;;
20415;SDS011;10367;52.202;5.996;2023-03-03T07:13:16;37.43;;;10.80;;
20415;SDS011;10367;52.202;5.996;2023-03-03T07:16:11;36.53;;;11.80;;
20415;SDS011;10367;52.202;5.996;2023-03-03T07:18:58;24.43;;;9.20;;
20415;SDS011;10367;52.202;5.996;2023-03-03T07:21:30;26.80;;;11.33;;
20415;SDS011;10367;52.202;5.996;2023-03-03T07:24:07;32.50;;;11.23;;
20415;SDS011;10367;52.202;5.996;2023-03-03T07:26:53;25.47;;;8.97;;
20415;SDS011;10367;52.202;5.996;2023-03-03T07:29:31;27.30;;;11.23;;
20415;SDS011;10367;52.202;5.996;2023-03-03T07:32:15;32.40;;;11.33;;
20415;SDS011;10367;52.202;5.996;2023-03-03T07:34:54;39.17;;;12.93;;
20415;SDS011;10367;52.202;5.996;2023-03-03T07:37:28;28.50;;;11.43;;
20415;SDS011;10367;52.202;5.996;2023-03-03T07:39:59;26.50;;;9.97;;
20415;SDS011;10367;52.202;5.996;2023-03-03T07:42:36;29.53;;;11.27;;
20415;SDS011;10367;52.202;5.996;2023-03-03T07:45:20;44.07;;;12.70;;
20415;SDS011;10367;52.202;5.996;2023-03-03T07:47:57;33.20;;;11.60;;
20415;SDS011;10367;52.202;5.996;2023-03-03T07:50:48;23.57;;;10.27;;
20415;SDS011;10367;52.202;5.996;2023-03-03T07:53:22;36.20;;;13.33;;
20415;SDS011;10367;52.202;5.996;2023-03-03T07:55:58;32.57;;;11.37;;
20415;SDS011;10367;52.202;5.996;2023-03-03T07:58:30;31.13;;;12.00;;
20415;SDS011;10367;52.202;5.996;2023-03-03T08:04:16;38.63;;;13.93;;
20415;SDS011;10367;52.202;5.996;2023-03-03T08:06:52;25.87;;;10.07;;
20415;SDS011;10367;52.202;5.996;2023-03-03T08:09:33;30.00;;;11.53;;
20415;SDS011;10367;52.202;5.996;2023-03-03T08:15:20;37.80;;;12.60;;
20415;SDS011;10367;52.202;5.996;2023-03-03T08:17:54;34.40;;;12.70;;
20415;SDS011;10367;52.202;5.996;2023-03-03T08:20:46;23.30;;;9.77;;
20415;SDS011;10367;52.202;5.996;2023-03-03T08:23:21;37.87;;;12.63;;
20415;SDS011;10367;52.202;5.996;2023-03-03T08:25:54;29.90;;;12.17;;
20415;SDS011;10367;52.202;5.996;2023-03-03T08:28:25;34.60;;;12.20;;
20415;SDS011;10367;52.202;5.996;2023-03-03T08:30:55;28.47;;;9.60;;
20415;SDS011;10367;52.202;5.996;2023-03-03T08:33:47;25.30;;;9.30;;
20415;SDS011;10367;52.202;5.996;2023-03-03T08:36:21;27.03;;;11.20;;
20415;SDS011;10367;52.202;5.996;2023-03-03T08:38:54;28.30;;;12.03;;
20415;SDS011;10367;52.202;5.996;2023-03-03T08:41:23;23.80;;;10.03;;
20415;SDS011;10367;52.202;5.996;2023-03-03T08:43:53;26.07;;;11.30;;
20415;SDS011;10367;52.202;5.996;2023-03-03T08:46:22;26.73;;;10.63;;
20415;SDS011;10367;52.202;5.996;2023-03-03T08:48:54;23.17;;;9.33;;
20415;SDS011;10367;52.202;5.996;2023-03-03T08:51:24;28.53;;;11.60;;
20415;SDS011;10367;52.202;5.996;2023-03-03T08:53:54;24.27;;;10.33;;
20415;SDS011;10367;52.202;5.996;2023-03-03T08:56:23;25.23;;;11.13;;
20415;SDS011;10367;52.202;5.996;2023-03-03T08:59:02;14.70;;;7.97;;
20415;SDS011;10367;52.202;5.996;2023-03-03T09:01:43;11.63;;;7.47;;
20415;SDS011;10367;52.202;5.996;2023-03-03T09:04:17;18.93;;;8.63;;
20415;SDS011;10367;52.202;5.996;2023-03-03T09:06:48;17.30;;;8.23;;
20415;SDS011;10367;52.202;5.996;2023-03-03T09:09:22;19.83;;;9.50;;
20415;SDS011;10367;52.202;5.996;2023-03-03T09:11:57;20.83;;;9.80;;
20415;SDS011;10367;52.202;5.996;2023-03-03T09:14:30;15.03;;;8.87;;
20415;SDS011;10367;52.202;5.996;2023-03-03T09:17:07;19.73;;;9.57;;
20415;SDS011;10367;52.202;5.996;2023-03-03T09:19:54;14.23;;;8.17;;
20415;SDS011;10367;52.202;5.996;2023-03-03T09:22:31;19.20;;;8.57;;
20415;SDS011;10367;52.202;5.996;2023-03-03T09:25:13;14.63;;;8.43;;
20415;SDS011;10367;52.202;5.996;2023-03-03T09:27:51;18.30;;;8.83;;
20415;SDS011;10367;52.202;5.996;2023-03-03T09:30:34;19.37;;;9.30;;
20415;SDS011;10367;52.202;5.996;2023-03-03T09:33:25;19.57;;;9.67;;
20415;SDS011;10367;52.202;5.996;2023-03-03T09:36:18;20.17;;;10.03;;
20415;SDS011;10367;52.202;5.996;2023-03-03T09:38:53;13.80;;;8.47;;
20415;SDS011;10367;52.202;5.996;2023-03-03T09:44:38;12.43;;;7.70;;
20415;SDS011;10367;52.202;5.996;2023-03-03T09:47:26;20.40;;;9.90;;
20415;SDS011;10367;52.202;5.996;2023-03-03T09:50:09;16.70;;;9.17;;
20415;SDS011;10367;52.202;5.996;2023-03-03T09:52:47;11.83;;;8.03;;
20415;SDS011;10367;52.202;5.996;2023-03-03T09:55:30;24.40;;;11.43;;
20415;SDS011;10367;52.202;5.996;2023-03-03T09:58:13;19.17;;;9.83;;
20415;SDS011;10367;52.202;5.996;2023-03-03T10:01:24;19.07;;;10.20;;
20415;SDS011;10367;52.202;5.996;2023-03-03T10:04:15;24.70;;;10.90;;
20415;SDS011;10367;52.202;5.996;2023-03-03T10:06:54;14.10;;;8.93;;
20415;SDS011;10367;52.202;5.996;2023-03-03T10:12:26;15.03;;;8.90;;
20415;SDS011;10367;52.202;5.996;2023-03-03T10:18:01;16.53;;;9.30;;
20415;SDS011;10367;52.202;5.996;2023-03-03T10:20:46;28.40;;;9.63;;
20415;SDS011;10367;52.202;5.996;2023-03-03T10:23:40;12.37;;;8.53;;
20415;SDS011;10367;52.202;5.996;2023-03-03T10:26:28;13.50;;;8.60;;
20415;SDS011;10367;52.202;5.996;2023-03-03T10:29:40;15.73;;;9.47;;
20415;SDS011;10367;52.202;5.996;2023-03-03T10:32:27;20.83;;;10.93;;
20415;SDS011;10367;52.202;5.996;2023-03-03T10:35:22;13.67;;;8.67;;
20415;SDS011;10367;52.202;5.996;2023-03-03T10:38:07;16.53;;;9.73;;
20415;SDS011;10367;52.202;5.996;2023-03-03T10:40:45;15.43;;;9.20;;
20415;SDS011;10367;52.202;5.996;2023-03-03T10:43:31;20.87;;;11.30;;
20415;SDS011;10367;52.202;5.996;2023-03-03T10:46:19;19.47;;;11.10;;
20415;SDS011;10367;52.202;5.996;2023-03-03T10:49:18;18.70;;;10.47;;
20415;SDS011;10367;52.202;5.996;2023-03-03T10:51:56;14.60;;;9.53;;
20415;SDS011;10367;52.202;5.996;2023-03-03T10:54:40;12.13;;;8.87;;
20415;SDS011;10367;52.202;5.996;2023-03-03T10:57:21;23.57;;;10.57;;
20415;SDS011;10367;52.202;5.996;2023-03-03T11:00:03;23.97;;;11.97;;
20415;SDS011;10367;52.202;5.996;2023-03-03T11:02:47;16.77;;;10.03;;
20415;SDS011;10367;52.202;5.996;2023-03-03T11:05:35;10.37;;;8.30;;
20415;SDS011;10367;52.202;5.996;2023-03-03T11:08:10;16.40;;;9.80;;
20415;SDS011;10367;52.202;5.996;2023-03-03T11:10:46;13.53;;;8.73;;
20415;SDS011;10367;52.202;5.996;2023-03-03T11:13:21;22.70;;;11.23;;
20415;SDS011;10367;52.202;5.996;2023-03-03T11:16:15;18.60;;;10.57;;
20415;SDS011;10367;52.202;5.996;2023-03-03T11:21:56;15.47;;;9.77;;
20415;SDS011;10367;52.202;5.996;2023-03-03T11:24:37;24.73;;;9.90;;
20415;SDS011;10367;52.202;5.996;2023-03-03T11:27:21;19.90;;;11.20;;
20415;SDS011;10367;52.202;5.996;2023-03-03T11:30:15;15.20;;;9.43;;
20415;SDS011;10367;52.202;5.996;2023-03-03T11:32:57;14.93;;;10.10;;
20415;SDS011;10367;52.202;5.996;2023-03-03T11:35:37;16.53;;;10.27;;
20415;SDS011;10367;52.202;5.996;2023-03-03T11:41:32;21.00;;;11.77;;
20415;SDS011;10367;52.202;5.996;2023-03-03T11:44:14;15.33;;;10.13;;
20415;SDS011;10367;52.202;5.996;2023-03-03T11:46:48;12.53;;;9.30;;
20415;SDS011;10367;52.202;5.996;2023-03-03T11:49:21;19.87;;;11.20;;
20415;SDS011;10367;52.202;5.996;2023-03-03T11:52:00;13.27;;;9.03;;
20415;SDS011;10367;52.202;5.996;2023-03-03T11:54:41;13.57;;;9.73;;
20415;SDS011;10367;52.202;5.996;2023-03-03T11:57:17;20.67;;;10.47;;
20415;SDS011;10367;52.202;5.996;2023-03-03T11:59:57;17.60;;;10.13;;
20415;SDS011;10367;52.202;5.996;2023-03-03T12:05:32;14.30;;;10.07;;
20415;SDS011;10367;52.202;5.996;2023-03-03T12:08:14;11.07;;;8.73;;
20415;SDS011;10367;52.202;5.996;2023-03-03T12:10:56;15.50;;;9.60;;
20415;SDS011;10367;52.202;5.996;2023-03-03T12:13:34;11.90;;;8.43;;
20415;SDS011;10367;52.202;5.996;2023-03-03T12:16:18;14.80;;;9.47;;
20415;SDS011;10367;52.202;5.996;2023-03-03T12:18:57;16.30;;;9.43;;
20415;SDS011;10367;52.202;5.996;2023-03-03T12:21:45;15.83;;;9.70;;
20415;SDS011;10367;52.202;5.996;2023-03-03T12:24:36;12.23;;;9.20;;
20415;SDS011;10367;52.202;5.996;2023-03-03T12:27:17;12.60;;;10.43;;
20415;SDS011;10367;52.202;5.996;2023-03-03T12:29:58;12.83;;;9.97;;
20415;SDS011;10367;52.202;5.996;2023-03-03T12:32:47;12.63;;;9.67;;
20415;SDS011;10367;52.202;5.996;2023-03-03T12:35:30;17.30;;;10.77;;
20415;SDS011;10367;52.202;5.996;2023-03-03T12:38:10;17.50;;;11.30;;
20415;SDS011;10367;52.202;5.996;2023-03-03T12:40:49;10.40;;;9.23;;
20415;SDS011;10367;52.202;5.996;2023-03-03T12:43:29;16.67;;;10.53;;
20415;SDS011;10367;52.202;5.996;2023-03-03T12:46:20;16.43;;;10.80;;
20415;SDS011;10367;52.202;5.996;2023-03-03T12:48:57;12.37;;;9.47;;
20415;SDS011;10367;52.202;5.996;2023-03-03T12:51:32;16.97;;;10.83;;
20415;SDS011;10367;52.202;5.996;2023-03-03T12:54:31;16.73;;;10.47;;
20415;SDS011;10367;52.202;5.996;2023-03-03T12:57:15;16.17;;;10.13;;
20415;SDS011;10367;52.202;5.996;2023-03-03T13:00:10;12.27;;;9.23;;
20415;SDS011;10367;52.202;5.996;2023-03-03T13:02:58;8.97;;;8.17;;
20415;SDS011;10367;52.202;5.996;2023-03-03T13:05:34;10.90;;;9.60;;
20415;SDS011;10367;52.202;5.996;2023-03-03T13:08:23;18.87;;;10.57;;
20415;SDS011;10367;52.202;5.996;2023-03-03T13:11:10;9.57;;;8.63;;
20415;SDS011;10367;52.202;5.996;2023-03-03T13:13:57;13.20;;;9.20;;
20415;SDS011;10367;52.202;5.996;2023-03-03T13:16:40;11.60;;;9.30;;
20415;SDS011;10367;52.202;5.996;2023-03-03T13:19:22;13.40;;;9.73;;
20415;SDS011;10367;52.202;5.996;2023-03-03T13:21:57;11.93;;;8.87;;
20415;SDS011;10367;52.202;5.996;2023-03-03T13:24:35;9.83;;;8.87;;
20415;SDS011;10367;52.202;5.996;2023-03-03T13:27:13;14.80;;;10.67;;
20415;SDS011;10367;52.202;5.996;2023-03-03T13:29:49;20.57;;;11.87;;
20415;SDS011;10367;52.202;5.996;2023-03-03T13:32:28;11.20;;;9.43;;
20415;SDS011;10367;52.202;5.996;2023-03-03T13:35:06;16.20;;;10.67;;
20415;SDS011;10367;52.202;5.996;2023-03-03T13:37:40;20.03;;;11.33;;
20415;SDS011;10367;52.202;5.996;2023-03-03T13:40:21;16.97;;;10.87;;
20415;SDS011;10367;52.202;5.996;2023-03-03T13:42:54;11.70;;;9.53;;
20415;SDS011;10367;52.202;5.996;2023-03-03T13:45:29;10.97;;;9.43;;
20415;SDS011;10367;52.202;5.996;2023-03-03T13:48:11;12.37;;;9.33;;
20415;SDS011;10367;52.202;5.996;2023-03-03T13:50:56;11.27;;;9.13;;
20415;SDS011;10367;52.202;5.996;2023-03-03T13:53:37;12.13;;;9.93;;
20415;SDS011;10367;52.202;5.996;2023-03-03T13:56:26;23.37;;;12.60;;
20415;SDS011;10367;52.202;5.996;2023-03-03T13:59:15;13.90;;;10.37;;
20415;SDS011;10367;52.202;5.996;2023-03-03T14:01:55;11.43;;;9.37;;
20415;SDS011;10367;52.202;5.996;2023-03-03T14:04:35;10.87;;;8.93;;
20415;SDS011;10367;52.202;5.996;2023-03-03T14:07:16;15.83;;;10.80;;
20415;SDS011;10367;52.202;5.996;2023-03-03T14:10:02;17.10;;;10.10;;
20415;SDS011;10367;52.202;5.996;2023-03-03T14:12:37;18.73;;;10.43;;
20415;SDS011;10367;52.202;5.996;2023-03-03T14:20:54;16.03;;;9.37;;
20415;SDS011;10367;52.202;5.996;2023-03-03T14:23:41;12.73;;;8.63;;
20415;SDS011;10367;52.202;5.996;2023-03-03T14:26:23;20.47;;;11.17;;
20415;SDS011;10367;52.202;5.996;2023-03-03T14:29:04;9.40;;;8.23;;
20415;SDS011;10367;52.202;5.996;2023-03-03T14:31:50;19.87;;;11.03;;
20415;SDS011;10367;52.202;5.996;2023-03-03T14:34:34;16.63;;;9.80;;
20415;SDS011;10367;52.202;5.996;2023-03-03T14:37:23;13.97;;;9.10;;
20415;SDS011;10367;52.202;5.996;2023-03-03T14:40:03;13.20;;;9.57;;
20415;SDS011;10367;52.202;5.996;2023-03-03T14:42:52;16.97;;;9.80;;
20415;SDS011;10367;52.202;5.996;2023-03-03T14:45:28;20.73;;;11.13;;
20415;SDS011;10367;52.202;5.996;2023-03-03T14:48:09;18.57;;;10.20;;
20415;SDS011;10367;52.202;5.996;2023-03-03T14:50:47;12.07;;;9.00;;
20415;SDS011;10367;52.202;5.996;2023-03-03T14:53:29;22.83;;;10.97;;
20415;SDS011;10367;52.202;5.996;2023-03-03T14:56:14;15.37;;;9.07;;
20415;SDS011;10367;52.202;5.996;2023-03-03T14:58:48;10.63;;;8.77;;
20415;SDS011;10367;52.202;5.996;2023-03-03T15:01:22;17.40;;;9.60;;
20415;SDS011;10367;52.202;5.996;2023-03-03T15:03:59;10.70;;;8.07;;
20415;SDS011;10367;52.202;5.996;2023-03-03T15:06:31;13.30;;;9.27;;
20415;SDS011;10367;52.202;5.996;2023-03-03T15:09:22;12.40;;;9.50;;
20415;SDS011;10367;52.202;5.996;2023-03-03T15:11:58;11.67;;;9.43;;
20415;SDS011;10367;52.202;5.996;2023-03-03T15:14:29;10.53;;;9.13;;
20415;SDS011;10367;52.202;5.996;2023-03-03T15:17:16;12.33;;;9.17;;
20415;SDS011;10367;52.202;5.996;2023-03-03T15:22:49;19.23;;;10.00;;
20415;SDS011;10367;52.202;5.996;2023-03-03T15:25:25;21.70;;;11.23;;
20415;SDS011;10367;52.202;5.996;2023-03-03T15:28:13;13.57;;;9.57;;
20415;SDS011;10367;52.202;5.996;2023-03-03T15:30:54;17.87;;;10.47;;
20415;SDS011;10367;52.202;5.996;2023-03-03T15:33:28;19.80;;;10.70;;
20415;SDS011;10367;52.202;5.996;2023-03-03T15:36:09;15.57;;;9.93;;
20415;SDS011;10367;52.202;5.996;2023-03-03T15:38:44;13.83;;;9.07;;
20415;SDS011;10367;52.202;5.996;2023-03-03T15:41:38;19.23;;;10.83;;
20415;SDS011;10367;52.202;5.996;2023-03-03T15:44:15;11.93;;;9.20;;
20415;SDS011;10367;52.202;5.996;2023-03-03T15:46:58;13.80;;;8.80;;
20415;SDS011;10367;52.202;5.996;2023-03-03T15:52:39;15.53;;;10.10;;
20415;SDS011;10367;52.202;5.996;2023-03-03T15:55:18;13.03;;;8.83;;
20415;SDS011;10367;52.202;5.996;2023-03-03T15:58:05;15.90;;;10.13;;
20415;SDS011;10367;52.202;5.996;2023-03-03T16:00:51;10.00;;;8.23;;
20415;SDS011;10367;52.202;5.996;2023-03-03T16:03:30;17.50;;;10.03;;
20415;SDS011;10367;52.202;5.996;2023-03-03T16:06:05;15.83;;;9.30;;
20415;SDS011;10367;52.202;5.996;2023-03-03T16:08:40;11.47;;;8.67;;
20415;SDS011;10367;52.202;5.996;2023-03-03T16:11:17;16.63;;;9.63;;
20415;SDS011;10367;52.202;5.996;2023-03-03T16:13:55;15.53;;;8.57;;